Terminal Aerodrome Forecast
Issued by NWS Wilmington, OH

Current Version | Previous Version | Text Only | Print | Product List | Glossary Off
Versions: 1 2 3 4 5 6 7 8 9 10 11 12 13 14 15 16 17 18 19

979
FTUS41 KILN 170539
TAFILN
TAF
KILN 170539Z 1706/1806 00000KT P6SM SKC
     FM171100 20003KT P6SM FEW250
     FM171500 23008KT P6SM FEW250
     FM180000 19003KT P6SM SKC=

USA.gov is the U.S. government's official web portal to all federal, state and local government web resources and services.